Time;durP1;ratioP1;P1;durP2;ratioP2;P2;SDS_P1;SDS_P2;PMS_P1;PMS_P2;Temp;Humidity;BMP_temperature;BMP_pressure;BME280_temperature;BME280_humidity;BME280_pressure;Samples;Min_cycle;Max_cycle;Signal;HPM_P1;HPM_P2
2021/11/12 00:03:03;;;;;;;;;;;;;;;7.94;100.00;102228.19;5049292;28;19924;-47
2021/11/12 00:13:46;;;;;;;;;;;;;;;7.98;100.00;102222.88;5053064;28;20371;-46
2021/11/12 00:16:13;;;;;;;;;;;;;;;7.93;100.00;102221.25;5052808;28;20322;-48
2021/11/12 00:18:40;;;;;;;;;;;;;;;7.97;100.00;102216.75;5052796;28;19924;-46
2021/11/12 00:21:07;;;;;;;;;;;;;;;7.94;100.00;102220.31;5052811;28;19968;-45
2021/11/12 00:23:35;;;;;;;;;;;;;;;7.91;100.00;102209.94;5051633;28;20020;-49
2021/11/12 00:26:02;;;;;;;;;;;;;;;7.98;100.00;102215.84;5068155;28;19925;-47
2021/11/12 00:28:36;;;;;;;;;;;;;;;7.93;100.00;102208.16;5051527;28;20275;-47
2021/11/12 00:31:13;;;;;;;;;;;;;;;7.92;100.00;102205.56;5052785;28;19928;-49
2021/11/12 00:36:54;;;;;;;;;;;;;;;7.91;100.00;102194.22;5051330;28;19925;-46
2021/11/12 00:42:14;;;;;;;;;;;;;;;7.89;100.00;102195.19;5052099;28;20388;-46
2021/11/12 00:47:21;;;;;;;;;;;;;;;7.86;100.00;102190.91;5052408;28;19925;-47
2021/11/12 00:50:04;;;;;;;;;;;;;;;7.86;100.00;102190.06;5065926;28;19932;-49
2021/11/12 00:52:43;;;;;;;;;;;;;;;7.85;100.00;102190.94;5052510;28;20103;-48
2021/11/12 00:55:10;;;;;;;;;;;;;;;7.82;100.00;102191.91;5049952;28;19928;-50
2021/11/12 00:57:37;;;;;;;;;;;;;;;7.81;100.00;102181.47;5049750;28;19931;-50
2021/11/12 01:00:04;;;;;;;;;;;;;;;7.86;100.00;102185.66;5050329;28;20012;-47
2021/11/12 01:02:32;;;;;;;;;;;;;;;7.85;100.00;102178.69;5052335;28;19925;-47
2021/11/12 01:04:59;;;;;;;;;;;;;;;7.82;100.00;102178.81;5052389;28;19932;-48
2021/11/12 01:07:27;;;;;;;;;;;;;;;7.80;100.00;102178.03;5052615;28;19925;-47
2021/11/12 01:09:53;;;;;;;;;;;;;;;7.81;100.00;102174.47;5051138;28;20376;-50
2021/11/12 01:12:20;;;;;;;;;;;;;;;7.83;100.00;102175.28;5052587;28;20403;-50
2021/11/12 01:14:47;;;;;;;;;;;;;;;7.83;100.00;102171.81;5052261;28;19925;-48
2021/11/12 01:17:14;;;;;;;;;;;;;;;7.84;100.00;102169.16;5052249;28;19925;-47
2021/11/12 01:19:41;;;;;;;;;;;;;;;7.84;100.00;102173.50;5052172;28;19924;-47
2021/11/12 01:22:09;;;;;;;;;;;;;;;7.86;100.00;102179.56;5052337;28;19975;-48
2021/11/12 01:24:36;;;;;;;;;;;;;;;7.79;100.00;102176.28;5050651;28;19975;-46
2021/11/12 01:27:03;;;;;;;;;;;;;;;7.85;100.00;102168.22;5064861;28;19924;-49
2021/11/12 01:29:29;;;;;;;;;;;;;;;7.78;100.00;102162.34;5055432;28;19988;-49
2021/11/12 01:31:58;;;;;;;;;;;;;;;7.78;100.00;102164.09;5055707;28;19924;-50
2021/11/12 01:34:24;;;;;;;;;;;;;;;7.81;100.00;102166.59;5056042;28;20011;-45
2021/11/12 01:36:51;;;;;;;;;;;;;;;7.83;100.00;102164.81;5055807;28;20384;-47
2021/11/12 01:39:20;;;;;;;;;;;;;;;7.83;100.00;102151.72;5055532;28;20027;-48
2021/11/12 01:41:49;;;;;;;;;;;;;;;7.85;100.00;102159.53;5070799;28;19974;-47
2021/11/12 01:44:18;;;;;;;;;;;;;;;7.80;100.00;102149.22;5070984;28;19925;-49
2021/11/12 01:57:25;;;;;;;;;;;;;;;7.78;100.00;102136.16;5055605;28;19925;-48
2021/11/12 01:59:53;;;;;;;;;;;;;;;7.83;100.00;102138.63;5052654;28;20363;-49
2021/11/12 02:02:20;;;;;;;;;;;;;;;7.85;100.00;102133.31;5050752;28;19925;-48
2021/11/12 02:04:48;;;;;;;;;;;;;;;7.83;100.00;102133.38;5052923;28;19978;-49
2021/11/12 02:07:14;;;;;;;;;;;;;;;7.79;100.00;102126.53;5054845;28;19929;-47
2021/11/12 02:09:41;;;;;;;;;;;;;;;7.78;100.00;102124.81;5055126;28;19979;-48
2021/11/12 02:12:19;;;;;;;;;;;;;;;7.75;100.00;102122.31;5070535;28;19924;-50
2021/11/12 02:14:47;;;;;;;;;;;;;;;7.69;100.00;102114.63;5053660;28;19925;-47
2021/11/12 02:19:49;;;;;;;;;;;;;;;7.70;100.00;102109.38;5054752;28;19929;-49
2021/11/12 02:22:16;;;;;;;;;;;;;;;7.77;100.00;102110.88;5069035;28;19925;-47
2021/11/12 02:24:48;;;;;;;;;;;;;;;7.70;100.00;102111.13;5041517;28;19960;-49
2021/11/12 02:27:17;;;;;;;;;;;;;;;7.61;100.00;102096.56;5038791;28;19932;-46
2021/11/12 02:29:54;;;;;;;;;;;;;;;7.59;100.00;102101.00;5051879;28;20029;-47
2021/11/12 02:32:25;;;;;;;;;;;;;;;7.54;100.00;102102.91;5041877;28;19941;-48
2021/11/12 02:34:53;;;;;;;;;;;;;;;7.58;100.00;102100.16;5036118;28;19928;-48
2021/11/12 02:37:20;;;;;;;;;;;;;;;7.63;100.00;102091.28;5048280;28;19932;-49
2021/11/12 02:39:48;;;;;;;;;;;;;;;7.51;100.00;102090.78;5030843;28;19932;-50
2021/11/12 02:42:15;;;;;;;;;;;;;;;7.43;100.00;102084.91;5031284;28;19925;-46
2021/11/12 02:44:42;;;;;;;;;;;;;;;7.42;100.00;102083.22;5040850;28;19952;-50
2021/11/12 02:47:11;;;;;;;;;;;;;;;7.43;100.00;102098.00;5049325;28;20338;-45
2021/11/12 02:49:38;;;;;;;;;;;;;;;7.35;100.00;102100.00;5034358;28;19960;-47
2021/11/12 02:52:06;;;;;;;;;;;;;;;7.33;100.00;102105.28;5046825;28;19932;-51
2021/11/12 02:54:33;;;;;;;;;;;;;;;7.35;100.00;102100.00;5038415;28;20007;-49
2021/11/12 02:57:01;;;;;;;;;;;;;;;7.33;100.00;102097.44;5048798;28;20307;-51
2021/11/12 02:59:27;;;;;;;;;;;;;;;7.27;100.00;102100.28;5050992;28;20296;-48
2021/11/12 03:01:57;;;;;;;;;;;;;;;7.24;100.00;102098.59;5051557;28;19929;-50
2021/11/12 03:04:24;;;;;;;;;;;;;;;7.21;100.00;102088.25;5042812;28;19935;-49
2021/11/12 03:06:51;;;;;;;;;;;;;;;7.23;100.00;102081.19;5037660;28;20642;-48
2021/11/12 03:09:22;;;;;;;;;;;;;;;7.27;99.89;102076.72;5042998;28;19968;-47
2021/11/12 03:11:49;;;;;;;;;;;;;;;7.15;100.00;102082.34;5044507;28;19935;-51
2021/11/12 03:14:16;;;;;;;;;;;;;;;7.11;100.00;102076.34;5049970;28;20017;-46
2021/11/12 03:16:43;;;;;;;;;;;;;;;7.08;100.00;102071.19;5049370;28;19925;-47
2021/11/12 03:19:10;;;;;;;;;;;;;;;7.05;100.00;102077.38;5048664;28;19926;-46
2021/11/12 03:21:38;;;;;;;;;;;;;;;7.04;100.00;102074.81;5051739;28;19931;-49
2021/11/12 03:24:16;;;;;;;;;;;;;;;7.01;100.00;102077.50;5050563;28;20307;-47
2021/11/12 03:27:06;;;;;;;;;;;;;;;7.04;100.00;102087.91;5056280;28;19929;-48
2021/11/12 05:45:45;;;;;;;;;;;;;;;4.26;99.55;101881.94;5040942;28;19925;-51
2021/11/12 05:56:28;;;;;;;;;;;;;;;4.23;99.49;101880.25;5042850;28;19925;-49
2021/11/12 05:58:55;;;;;;;;;;;;;;;4.16;99.65;101878.69;5046893;28;20008;-49
2021/11/12 06:01:22;;;;;;;;;;;;;;;4.13;99.60;101876.16;5052101;28;20401;-47
2021/11/12 06:03:49;;;;;;;;;;;;;;;4.11;99.95;101888.31;5068752;28;20311;-48
2021/11/12 06:06:16;;;;;;;;;;;;;;;4.03;100.00;101888.47;5054103;28;19925;-45
2021/11/12 06:08:43;;;;;;;;;;;;;;;4.02;100.00;101880.69;5054964;28;19932;-49
2021/11/12 06:11:10;;;;;;;;;;;;;;;4.01;99.96;101885.06;5055297;28;20472;-48
2021/11/12 06:13:36;;;;;;;;;;;;;;;3.91;100.00;101891.34;5054362;28;19979;-49
2021/11/12 06:16:03;;;;;;;;;;;;;;;3.94;100.00;101900.84;5066525;28;19975;-48
2021/11/12 06:18:30;;;;;;;;;;;;;;;3.86;100.00;101888.00;5052857;28;19925;-48
2021/11/12 06:20:57;;;;;;;;;;;;;;;3.85;100.00;101883.66;5054773;28;19925;-48
2021/11/12 06:23:24;;;;;;;;;;;;;;;3.77;100.00;101877.75;5054535;28;19925;-47
2021/11/12 06:25:51;;;;;;;;;;;;;;;3.79;100.00;101870.78;5070142;28;19925;-51
2021/11/12 06:28:18;;;;;;;;;;;;;;;3.73;100.00;101866.56;5054594;28;19925;-49
2021/11/12 06:30:45;;;;;;;;;;;;;;;3.77;99.96;101868.19;5054361;28;19925;-47
2021/11/12 06:33:12;;;;;;;;;;;;;;;3.69;100.00;101881.34;5050550;28;20016;-45
2021/11/12 06:35:39;;;;;;;;;;;;;;;3.69;100.00;101883.97;5051471;28;20362;-47
2021/11/12 06:38:06;;;;;;;;;;;;;;;3.74;99.87;101891.69;5053346;28;20417;-51
2021/11/12 06:40:32;;;;;;;;;;;;;;;3.67;100.00;101885.75;5054349;28;19924;-46
2021/11/12 06:43:08;;;;;;;;;;;;;;;3.64;100.00;101888.41;5068928;28;19929;-46
2021/11/12 06:51:09;;;;;;;;;;;;;;;3.52;99.97;101888.66;5051094;28;19932;-48
2021/11/12 06:53:36;;;;;;;;;;;;;;;3.48;100.00;101887.84;5052699;28;20015;-47
2021/11/12 06:56:03;;;;;;;;;;;;;;;3.49;100.00;101894.78;5069478;28;20388;-48
2021/11/12 06:58:30;;;;;;;;;;;;;;;3.38;100.00;101896.69;5053032;28;20307;-46
2021/11/12 07:00:57;;;;;;;;;;;;;;;3.34;100.00;101877.72;5052960;28;19968;-48
2021/11/12 07:03:26;;;;;;;;;;;;;;;3.32;100.00;101874.25;5068815;28;20395;-50
2021/11/12 07:05:53;;;;;;;;;;;;;;;3.34;100.00;101869.03;5050070;28;20028;-47
2021/11/12 07:08:20;;;;;;;;;;;;;;;3.25;100.00;101874.44;5052180;28;21034;-47
2021/11/12 07:10:47;;;;;;;;;;;;;;;3.28;100.00;101869.16;5053631;28;20387;-47
2021/11/12 07:13:14;;;;;;;;;;;;;;;3.25;100.00;101867.47;5053828;28;19929;-48
2021/11/12 07:15:40;;;;;;;;;;;;;;;3.22;100.00;101870.97;5069114;28;19924;-48
2021/11/12 07:18:07;;;;;;;;;;;;;;;3.22;100.00;101865.78;5054118;28;20380;-49
2021/11/12 07:20:34;;;;;;;;;;;;;;;3.24;100.00;101850.16;5053809;28;19924;-45
2021/11/12 07:23:01;;;;;;;;;;;;;;;3.21;100.00;101842.41;5053645;28;20372;-46
2021/11/12 07:25:28;;;;;;;;;;;;;;;3.09;100.00;101830.47;5052996;28;19925;-47
2021/11/12 07:27:55;;;;;;;;;;;;;;;3.14;100.00;101838.22;5068990;28;20296;-47
2021/11/12 07:30:21;;;;;;;;;;;;;;;3.15;100.00;101852.91;5052308;28;19925;-49
2021/11/12 07:32:49;;;;;;;;;;;;;;;3.25;100.00;101862.25;5053771;28;19925;-45
2021/11/12 07:35:22;;;;;;;;;;;;;;;3.35;99.99;101857.75;5053573;28;20019;-48
2021/11/12 07:37:48;;;;;;;;;;;;;;;3.42;99.61;101850.69;5067783;28;20446;-46
2021/11/12 07:40:23;;;;;;;;;;;;;;;3.38;99.45;101853.34;5053421;28;19998;-48
2021/11/12 07:44:05;;;;;;;;;;;;;;;3.50;99.39;101854.00;5053723;28;20027;-45
2021/11/12 07:48:29;;;;;;;;;;;;;;;3.46;99.03;101832.38;5053367;28;19929;-49
2021/11/12 07:50:56;;;;;;;;;;;;;;;3.55;98.54;101829.59;5053202;28;20411;-50
2021/11/12 07:53:23;;;;;;;;;;;;;;;3.76;98.17;101831.81;5053308;28;19925;-47
2021/11/12 07:55:50;;;;;;;;;;;;;;;3.78;97.49;101833.50;5053435;28;19925;-48
2021/11/12 07:58:18;;;;;;;;;;;;;;;3.87;97.04;101833.31;5051527;28;19936;-49
2021/11/12 08:00:45;;;;;;;;;;;;;;;3.91;96.92;101828.03;5050279;28;20052;-49
2021/11/12 08:03:14;;;;;;;;;;;;;;;3.86;96.87;101831.59;5050544;28;20012;-48
2021/11/12 08:05:49;;;;;;;;;;;;;;;3.85;96.78;101822.06;5052660;28;19929;-46
2021/11/12 08:08:18;;;;;;;;;;;;;;;3.96;96.79;101821.81;5051515;28;19978;-48
2021/11/12 08:10:58;;;;;;;;;;;;;;;4.04;96.27;101816.47;5052930;28;20327;-48
2021/11/12 08:13:34;;;;;;;;;;;;;;;4.28;96.41;101824.59;5051600;28;20023;-49
2021/11/12 08:24:17;;;;;;;;;;;;;;;4.72;94.72;101817.47;5041022;28;19925;-49
2021/11/12 08:29:40;;;;;;;;;;;;;;;5.07;93.03;101816.56;5052398;28;19925;-48
2021/11/12 08:37:38;;;;;;;;;;;;;;;4.92;92.50;101816.94;5052561;28;19925;-46
2021/11/12 08:42:59;;;;;;;;;;;;;;;5.16;92.97;101815.44;5056602;28;19970;-48
2021/11/12 08:45:33;;;;;;;;;;;;;;;4.96;93.06;101813.34;5056707;28;19925;-45
2021/11/12 08:48:05;;;;;;;;;;;;;;;4.87;92.75;101809.25;5055275;28;19947;-46
2021/11/12 08:50:33;;;;;;;;;;;;;;;4.95;92.84;101801.25;5056725;28;19925;-46
2021/11/12 08:53:04;;;;;;;;;;;;;;;5.15;92.55;101794.63;5071727;28;19925;-46
2021/11/12 08:55:32;;;;;;;;;;;;;;;4.99;91.83;101796.78;5056613;28;20412;-48
2021/11/12 08:57:59;;;;;;;;;;;;;;;4.98;92.04;101784.66;5054228;28;19952;-47
2021/11/12 09:00:26;;;;;;;;;;;;;;;5.12;92.00;101782.53;5053194;28;19925;-50
2021/11/12 09:02:53;;;;;;;;;;;;;;;5.35;92.75;101789.72;5050774;28;19978;-48
2021/11/12 09:05:20;;;;;;;;;;;;;;;5.42;90.66;101793.00;5055115;28;19971;-51
2021/11/12 09:07:48;;;;;;;;;;;;;;;5.49;90.98;101773.66;5056333;28;20647;-47
2021/11/12 09:10:16;;;;;;;;;;;;;;;5.53;90.89;101762.22;5056152;28;19996;-50
2021/11/12 09:12:46;;;;;;;;;;;;;;;5.68;88.77;101747.88;5071467;28;20387;-48
2021/11/12 09:15:22;;;;;;;;;;;;;;;5.85;88.93;101757.81;5054742;28;19994;-48
2021/11/12 09:17:49;;;;;;;;;;;;;;;5.95;88.47;101745.31;5056145;28;19928;-48
2021/11/12 09:20:21;;;;;;;;;;;;;;;5.85;88.12;101750.00;5070775;28;20372;-49
2021/11/12 09:22:48;;;;;;;;;;;;;;;6.00;88.57;101759.13;5054590;28;20303;-50
2021/11/12 09:25:15;;;;;;;;;;;;;;;5.72;88.56;101748.66;5055933;28;19963;-49
2021/11/12 09:27:41;;;;;;;;;;;;;;;6.18;87.13;101747.25;5055925;28;19928;-47
2021/11/12 09:30:10;;;;;;;;;;;;;;;6.40;87.50;101746.53;5071216;28;20363;-49
2021/11/12 09:32:37;;;;;;;;;;;;;;;6.61;85.62;101744.94;5054526;28;19982;-49
2021/11/12 09:35:04;;;;;;;;;;;;;;;6.71;83.74;101737.66;5053300;28;19924;-46
2021/11/12 09:37:35;;;;;;;;;;;;;;;6.98;84.02;101725.38;5036358;28;20362;-49
2021/11/12 09:40:04;;;;;;;;;;;;;;;7.05;84.00;101732.09;5055719;28;19947;-46
2021/11/12 09:42:31;;;;;;;;;;;;;;;7.00;84.14;101731.41;5055910;28;20388;-46
2021/11/12 09:44:58;;;;;;;;;;;;;;;7.40;83.03;101721.22;5055840;28;19970;-46
2021/11/12 09:47:27;;;;;;;;;;;;;;;7.47;81.26;101716.59;5070936;28;20028;-49
2021/11/12 09:49:55;;;;;;;;;;;;;;;7.16;80.79;101723.84;5054796;28;19929;-48
2021/11/12 09:52:25;;;;;;;;;;;;;;;7.39;80.69;101719.50;5055650;28;19924;-52
2021/11/12 09:54:52;;;;;;;;;;;;;;;7.28;81.39;101714.69;5055602;28;20427;-49
2021/11/12 09:57:19;;;;;;;;;;;;;;;7.29;82.07;101713.78;5055481;28;19925;-50
2021/11/12 09:59:58;;;;;;;;;;;;;;;8.07;80.71;101716.88;5055668;28;19929;-48
2021/11/12 10:02:28;;;;;;;;;;;;;;;7.74;80.81;101720.78;5054989;28;19939;-46
2021/11/12 10:04:54;;;;;;;;;;;;;;;7.85;79.16;101719.50;5069925;28;19947;-50
2021/11/12 10:07:22;;;;;;;;;;;;;;;8.50;78.55;101730.84;5070339;28;19929;-49
2021/11/12 10:10:05;;;;;;;;;;;;;;;8.52;76.24;101739.53;5055409;28;20371;-49
2021/11/12 10:12:39;;;;;;;;;;;;;;;8.78;76.35;101720.03;5044804;28;19929;-48
2021/11/12 10:15:17;;;;;;;;;;;;;;;8.43;76.62;101724.13;5038907;28;19925;-47
2021/11/12 10:17:44;;;;;;;;;;;;;;;8.59;75.62;101709.50;5034499;28;19944;-47
2021/11/12 10:20:13;;;;;;;;;;;;;;;8.58;75.97;101701.69;5040510;28;19924;-47
2021/11/12 10:22:43;;;;;;;;;;;;;;;8.51;75.23;101702.84;5042211;28;19925;-46
2021/11/12 10:25:10;;;;;;;;;;;;;;;8.41;75.82;101699.75;5059312;28;19929;-46
2021/11/12 10:27:38;;;;;;;;;;;;;;;8.97;74.67;101690.34;5047018;28;19929;-47
2021/11/12 10:30:09;;;;;;;;;;;;;;;9.46;73.43;101687.25;5042842;28;20450;-46
2021/11/12 10:32:36;;;;;;;;;;;;;;;8.82;74.57;101693.66;5044493;28;20296;-49
2021/11/12 10:35:08;;;;;;;;;;;;;;;8.65;75.69;101687.38;5040960;28;19925;-48
2021/11/12 10:37:38;;;;;;;;;;;;;;;9.15;74.94;101680.81;5041285;28;20384;-47
2021/11/12 10:40:13;;;;;;;;;;;;;;;8.94;74.66;101678.25;5051514;28;20335;-47
2021/11/12 10:42:41;;;;;;;;;;;;;;;8.80;75.03;101675.38;5043437;28;19928;-50
2021/11/12 10:45:09;;;;;;;;;;;;;;;8.74;75.25;101657.25;5051050;28;20338;-50
2021/11/12 10:47:43;;;;;;;;;;;;;;;8.84;75.50;101655.94;5037866;28;19925;-46
2021/11/12 10:50:09;;;;;;;;;;;;;;;8.93;74.81;101638.94;5034034;28;19925;-47
2021/11/12 10:52:37;;;;;;;;;;;;;;;8.94;75.36;101640.63;5033024;28;19987;-48
2021/11/12 10:55:03;;;;;;;;;;;;;;;8.49;76.14;101639.16;5034539;28;19925;-45
2021/11/12 10:57:35;;;;;;;;;;;;;;;8.49;76.64;101647.03;5032872;28;19929;-48
2021/11/12 11:00:10;;;;;;;;;;;;;;;8.78;77.02;101653.59;5029742;28;20024;-46
2021/11/12 11:02:38;;;;;;;;;;;;;;;8.42;76.82;101644.63;5033567;28;20324;-50
2021/11/12 11:05:08;;;;;;;;;;;;;;;8.42;77.80;101649.03;5034126;28;19925;-48
2021/11/12 11:07:35;;;;;;;;;;;;;;;8.55;76.44;101642.38;5049238;28;19929;-49
2021/11/12 11:10:03;;;;;;;;;;;;;;;8.28;78.35;101631.28;5049698;28;19932;-51
2021/11/12 11:12:31;;;;;;;;;;;;;;;8.33;78.11;101634.56;5034250;28;19925;-50
2021/11/12 11:15:16;;;;;;;;;;;;;;;8.08;80.02;101626.88;5033702;28;19925;-47
2021/11/12 11:17:45;;;;;;;;;;;;;;;8.19;79.24;101619.41;5033219;28;19931;-46
2021/11/12 11:20:15;;;;;;;;;;;;;;;8.21;79.05;101630.69;5048432;28;19929;-53
2021/11/12 11:22:56;;;;;;;;;;;;;;;8.17;78.73;101626.50;5033512;28;19948;-48
2021/11/12 11:25:24;;;;;;;;;;;;;;;8.11;79.26;101634.59;5033382;28;19928;-47
2021/11/12 11:27:56;;;;;;;;;;;;;;;8.29;79.04;101646.94;5031881;28;19925;-50
2021/11/12 11:30:23;;;;;;;;;;;;;;;8.18;78.94;101632.56;5031911;28;19925;-49
2021/11/12 11:32:50;;;;;;;;;;;;;;;7.76;80.45;101621.22;5048318;28;19932;-50
2021/11/12 11:35:18;;;;;;;;;;;;;;;7.73;80.54;101623.94;5033254;28;19936;-48
2021/11/12 11:37:46;;;;;;;;;;;;;;;7.73;81.04;101614.34;5033215;28;19929;-50
2021/11/12 11:40:14;;;;;;;;;;;;;;;7.92;80.44;101614.44;5045256;28;20388;-48
2021/11/12 11:42:44;;;;;;;;;;;;;;;8.02;80.42;101608.81;5030313;28;19987;-48
2021/11/12 11:45:11;;;;;;;;;;;;;;;8.16;79.97;101595.97;5048258;28;20392;-51
2021/11/12 11:47:39;;;;;;;;;;;;;;;8.25;80.31;101576.38;5032920;28;19925;-49
2021/11/12 11:50:38;;;;;;;;;;;;;;;8.26;80.22;101573.69;5048568;28;20276;-50
2021/11/12 11:53:20;;;;;;;;;;;;;;;8.22;79.69;101559.03;5031767;28;19932;-49
2021/11/12 11:55:47;;;;;;;;;;;;;;;8.11;80.59;101571.72;5032984;28;19952;-49
2021/11/12 11:58:33;;;;;;;;;;;;;;;8.12;81.02;101561.16;5048164;28;19925;-48
2021/11/12 12:01:16;;;;;;;;;;;;;;;8.13;80.26;101551.56;5047928;28;19932;-48
2021/11/12 12:03:43;;;;;;;;;;;;;;;7.97;81.07;101547.91;5031552;28;19968;-48
2021/11/12 12:06:19;;;;;;;;;;;;;;;7.77;81.82;101541.72;5032526;28;19925;-46
2021/11/12 12:08:49;;;;;;;;;;;;;;;7.61;82.32;101537.13;5048022;28;20277;-51
2021/11/12 12:11:20;;;;;;;;;;;;;;;7.68;82.20;101527.25;5032510;28;20019;-48
2021/11/12 12:13:47;;;;;;;;;;;;;;;7.48;83.62;101515.00;5032600;28;19932;-48
2021/11/12 12:16:21;;;;;;;;;;;;;;;7.66;82.17;101515.16;5047873;28;20376;-49
2021/11/12 12:18:48;;;;;;;;;;;;;;;7.81;82.27;101518.88;5031320;28;20009;-49
2021/11/12 13:19:46;;;;;;;;;;;;;;;8.22;82.31;101432.38;5031001;28;19929;-52
2021/11/12 13:22:03;;;;;;;;;;;;;;;8.17;83.13;101422.13;5042071;28;20285;-48
2021/11/12 13:24:48;;;;;;;;;;;;;;;8.07;82.93;101428.69;5033108;28;19940;-51
2021/11/12 13:27:15;;;;;;;;;;;;;;;8.13;83.46;101424.00;5031590;28;20027;-52
2021/11/12 13:29:42;;;;;;;;;;;;;;;8.10;82.57;101418.91;5033757;28;19939;-48
2021/11/12 13:32:09;;;;;;;;;;;;;;;8.13;81.88;101410.06;5035798;28;19925;-49
2021/11/12 13:34:43;;;;;;;;;;;;;;;8.07;81.85;101412.97;5051039;28;19929;-48
2021/11/12 13:37:11;;;;;;;;;;;;;;;8.13;82.21;101410.91;5035652;28;19925;-46
2021/11/12 13:39:38;;;;;;;;;;;;;;;8.13;81.79;101412.69;5035372;28;19979;-47
2021/11/12 13:42:05;;;;;;;;;;;;;;;8.06;82.15;101417.34;5035703;28;19925;-47
2021/11/12 13:44:32;;;;;;;;;;;;;;;8.00;82.42;101407.16;5050688;28;19929;-49
2021/11/12 13:47:00;;;;;;;;;;;;;;;7.97;83.57;101409.06;5035378;28;19949;-49
2021/11/12 13:49:27;;;;;;;;;;;;;;;8.02;84.05;101412.34;5050737;28;20277;-47
2021/11/12 13:51:58;;;;;;;;;;;;;;;8.06;82.85;101403.44;5035416;28;20479;-48
2021/11/12 13:54:25;;;;;;;;;;;;;;;8.00;83.62;101401.06;5050618;28;20373;-51
2021/11/12 13:56:52;;;;;;;;;;;;;;;7.89;84.13;101394.53;5050356;28;19925;-50
2021/11/12 13:59:19;;;;;;;;;;;;;;;7.81;84.61;101391.41;5035259;28;20288;-50
2021/11/12 14:01:58;;;;;;;;;;;;;;;7.85;84.20;101389.50;5032052;28;19971;-47
2021/11/12 14:04:27;;;;;;;;;;;;;;;7.94;84.17;101392.56;5031907;28;19929;-49
2021/11/12 14:06:55;;;;;;;;;;;;;;;7.77;84.77;101389.84;5035195;28;19925;-48
2021/11/12 14:09:24;;;;;;;;;;;;;;;7.81;85.09;101382.72;5034787;28;19995;-48
2021/11/12 14:12:03;;;;;;;;;;;;;;;7.85;84.99;101374.63;5017300;28;19925;-47
2021/11/12 14:14:31;;;;;;;;;;;;;;;7.79;84.88;101377.56;5034899;28;20316;-47
2021/11/12 14:17:13;;;;;;;;;;;;;;;7.69;85.41;101371.88;5045657;28;19925;-49
2021/11/12 14:19:50;;;;;;;;;;;;;;;7.73;85.19;101362.09;5048371;28;19925;-48
2021/11/12 14:22:30;;;;;;;;;;;;;;;7.66;85.54;101365.91;5033415;28;19925;-48
2021/11/12 14:28:12;;;;;;;;;;;;;;;7.57;86.36;101362.78;5024753;28;19931;-51
2021/11/12 14:33:25;;;;;;;;;;;;;;;7.50;86.97;101353.53;5034772;28;20383;-47
2021/11/12 14:38:34;;;;;;;;;;;;;;;7.48;87.68;101357.13;5033181;28;19975;-48
2021/11/12 14:41:18;;;;;;;;;;;;;;;7.40;87.84;101352.22;5031369;28;19925;-48
2021/11/12 14:49:21;;;;;;;;;;;;;;;7.35;88.09;101334.09;5034440;28;20643;-49
2021/11/12 14:52:03;;;;;;;;;;;;;;;7.28;88.69;101336.13;5047902;28;19932;-48
2021/11/12 14:54:31;;;;;;;;;;;;;;;7.31;88.77;101331.69;5034191;28;20300;-50
2021/11/12 14:56:59;;;;;;;;;;;;;;;7.24;88.93;101326.72;5033998;28;19925;-48
2021/11/12 14:59:26;;;;;;;;;;;;;;;7.23;89.22;101330.25;5034099;28;19925;-46
2021/11/12 15:01:52;;;;;;;;;;;;;;;7.17;89.28;101330.53;5034090;28;19960;-50
2021/11/12 15:04:20;;;;;;;;;;;;;;;7.10;89.31;101310.75;5034362;28;19997;-46
2021/11/12 15:06:47;;;;;;;;;;;;;;;7.12;89.47;101314.19;5033889;28;19932;-46
2021/11/12 15:09:27;;;;;;;;;;;;;;;7.13;89.56;101310.66;5033884;28;19925;-45
2021/11/12 15:11:54;;;;;;;;;;;;;;;7.03;89.90;101298.88;5047510;28;20273;-45
2021/11/12 15:14:35;;;;;;;;;;;;;;;7.06;89.88;101306.59;5034012;28;19925;-45
2021/11/12 15:17:04;;;;;;;;;;;;;;;7.07;89.67;101292.59;5032603;28;19926;-48
2021/11/12 15:19:34;;;;;;;;;;;;;;;6.98;90.39;101292.97;5033623;28;20295;-45
2021/11/12 15:24:39;;;;;;;;;;;;;;;6.86;91.27;101281.31;5033507;28;19925;-49
2021/11/12 15:27:17;;;;;;;;;;;;;;;6.89;90.91;101273.31;5033610;28;19929;-47
2021/11/12 15:29:57;;;;;;;;;;;;;;;6.76;91.40;101272.97;5047145;28;19925;-45
2021/11/12 15:32:28;;;;;;;;;;;;;;;6.72;91.66;101269.66;5032812;28;19925;-48
2021/11/12 15:35:01;;;;;;;;;;;;;;;6.73;91.71;101260.88;5032961;28;19925;-48
2021/11/12 15:45:36;;;;;;;;;;;;;;;6.72;91.91;101238.28;5033073;28;19925;-47
2021/11/12 15:48:12;;;;;;;;;;;;;;;6.59;92.94;101224.88;5031392;28;20021;-48
2021/11/12 16:11:23;;;;;;;;;;;;;;;6.42;94.46;101217.75;5047577;28;20299;-48
2021/11/12 16:19:26;;;;;;;;;;;;;;;6.40;94.86;101229.19;5032250;28;19933;-49
2021/11/12 16:27:13;;;;;;;;;;;;;;;6.43;94.46;101184.63;5032472;28;19983;-46
2021/11/12 16:29:45;;;;;;;;;;;;;;;6.41;94.74;101192.53;5047643;28;20015;-47
2021/11/12 16:32:26;;;;;;;;;;;;;;;6.39;94.80;101194.38;5032548;28;19929;-47
2021/11/12 16:35:01;;;;;;;;;;;;;;;6.44;94.39;101196.78;5032496;28;19925;-47
2021/11/12 16:37:29;;;;;;;;;;;;;;;6.40;94.78;101192.63;5032388;28;19925;-50
2021/11/12 16:40:10;;;;;;;;;;;;;;;6.37;94.84;101192.75;5030801;28;19929;-46
2021/11/12 16:45:18;;;;;;;;;;;;;;;6.30;95.68;101183.44;5032457;28;19925;-46
2021/11/12 16:47:50;;;;;;;;;;;;;;;6.27;95.92;101181.81;5032780;28;19925;-46
2021/11/12 16:50:40;;;;;;;;;;;;;;;6.33;95.21;101184.19;5047660;28;19929;-47
2021/11/12 16:56:23;;;;;;;;;;;;;;;6.24;96.25;101184.56;5032344;28;19935;-46
2021/11/12 17:11:39;;;;;;;;;;;;;;;6.20;96.65;101196.03;5033920;28;20387;-49
2021/11/12 18:05:02;;;;;;;;;;;;;;;6.01;98.60;101149.81;5035108;28;19932;-50
2021/11/12 21:46:52;;;;;;;;;;;;;;;7.53;98.77;101026.22;5034251;28;19979;-46
2021/11/12 21:49:19;;;;;;;;;;;;;;;7.61;98.49;101018.00;5034076;28;20020;-48
2021/11/12 21:51:46;;;;;;;;;;;;;;;7.68;98.90;101018.53;5049287;28;20285;-49
2021/11/12 21:54:13;;;;;;;;;;;;;;;7.67;99.14;101019.44;5038968;28;19925;-48
2021/11/12 21:56:39;;;;;;;;;;;;;;;7.64;99.01;101017.81;5058364;28;19925;-50
2021/11/12 21:59:06;;;;;;;;;;;;;;;7.69;99.21;101014.97;5042190;28;19960;-52
2021/11/12 22:01:34;;;;;;;;;;;;;;;7.65;99.44;101014.28;5049469;28;19925;-49
2021/11/12 22:04:01;;;;;;;;;;;;;;;7.65;99.79;101009.06;5041869;28;19941;-47
2021/11/12 22:06:28;;;;;;;;;;;;;;;7.71;99.99;101003.50;5047855;28;20270;-47
2021/11/12 22:08:55;;;;;;;;;;;;;;;7.71;100.00;100992.19;5048972;28;19932;-49
2021/11/12 22:11:21;;;;;;;;;;;;;;;7.69;100.00;100997.50;5045791;28;19925;-45
2021/11/12 22:13:48;;;;;;;;;;;;;;;7.68;100.00;100994.97;5052335;28;19932;-48
2021/11/12 22:16:21;;;;;;;;;;;;;;;7.73;100.00;100998.19;5051559;28;19925;-46
2021/11/12 22:18:48;;;;;;;;;;;;;;;7.78;100.00;100999.66;5054588;28;20347;-47
2021/11/12 22:21:16;;;;;;;;;;;;;;;7.77;100.00;100995.34;5034337;28;20440;-47
2021/11/12 22:23:42;;;;;;;;;;;;;;;7.78;100.00;100998.78;5037457;28;20327;-47
2021/11/12 22:26:11;;;;;;;;;;;;;;;7.84;100.00;100993.25;5052607;28;19924;-51
2021/11/12 22:28:38;;;;;;;;;;;;;;;7.86;100.00;100994.00;5053820;28;19928;-47
2021/11/12 22:31:05;;;;;;;;;;;;;;;7.87;100.00;100994.88;5054639;28;19940;-48
2021/11/12 22:33:32;;;;;;;;;;;;;;;7.87;100.00;100993.09;5053466;28;20400;-48
2021/11/12 22:35:58;;;;;;;;;;;;;;;7.93;100.00;100981.44;5054607;28;19963;-49
2021/11/12 22:38:25;;;;;;;;;;;;;;;7.90;100.00;100992.94;5053042;28;19932;-47
2021/11/12 22:40:54;;;;;;;;;;;;;;;7.91;100.00;100984.16;5053702;28;21416;-50
2021/11/12 22:43:22;;;;;;;;;;;;;;;8.03;100.00;100987.06;5054311;28;19932;-47
2021/11/12 22:45:49;;;;;;;;;;;;;;;7.99;100.00;100985.50;5053653;28;19933;-47
2021/11/12 22:48:16;;;;;;;;;;;;;;;8.00;100.00;100988.06;5049479;28;19964;-47
2021/11/12 22:50:42;;;;;;;;;;;;;;;8.02;100.00;100985.38;5053032;28;19925;-49
2021/11/12 22:53:09;;;;;;;;;;;;;;;8.00;100.00;100985.44;5054273;28;19975;-47
2021/11/12 22:55:36;;;;;;;;;;;;;;;8.07;100.00;100986.84;5053092;28;19932;-49
2021/11/12 22:58:03;;;;;;;;;;;;;;;8.08;100.00;100979.81;5054279;28;19931;-50
2021/11/12 23:00:32;;;;;;;;;;;;;;;8.06;100.00;100982.50;5052849;28;19933;-49
2021/11/12 23:03:00;;;;;;;;;;;;;;;8.03;100.00;100976.56;5048993;28;20302;-48